sensor_id;sensor_type;location;lat;lon;timestamp;pressure;altitude;pressure_sealevel;temperature;humidity
49877;BME280;35771;48.978;9.294;2023-02-14T00:01:38;100937.69;;;-1.39;100.00
49877;BME280;35771;48.978;9.294;2023-02-14T00:04:04;100938.81;;;-1.45;100.00
49877;BME280;35771;48.978;9.294;2023-02-14T00:06:31;100922.41;;;-1.56;100.00
49877;BME280;35771;48.978;9.294;2023-02-14T00:09:01;100930.41;;;-1.56;100.00
49877;BME280;35771;48.978;9.294;2023-02-14T00:11:27;100913.84;;;-1.65;100.00
49877;BME280;35771;48.978;9.294;2023-02-14T00:13:55;100937.44;;;-1.55;100.00
49877;BME280;35771;48.978;9.294;2023-02-14T00:16:39;100936.66;;;-1.57;100.00
49877;BME280;35771;48.978;9.294;2023-02-14T00:19:06;100919.63;;;-1.75;100.00
49877;BME280;35771;48.978;9.294;2023-02-14T00:21:35;100936.16;;;-1.67;100.00
49877;BME280;35771;48.978;9.294;2023-02-14T00:24:05;100934.56;;;-1.71;100.00
49877;BME280;35771;48.978;9.294;2023-02-14T00:26:32;100923.34;;;-1.80;100.00
49877;BME280;35771;48.978;9.294;2023-02-14T00:28:59;100934.75;;;-1.76;100.00
49877;BME280;35771;48.978;9.294;2023-02-14T00:31:25;100929.38;;;-1.74;100.00
49877;BME280;35771;48.978;9.294;2023-02-14T00:33:53;100911.44;;;-1.93;100.00
49877;BME280;35771;48.978;9.294;2023-02-14T00:36:19;100920.47;;;-1.75;100.00
49877;BME280;35771;48.978;9.294;2023-02-14T00:38:46;100912.84;;;-1.84;100.00
49877;BME280;35771;48.978;9.294;2023-02-14T00:41:14;100937.09;;;-1.68;100.00
49877;BME280;35771;48.978;9.294;2023-02-14T00:43:44;100930.81;;;-1.67;100.00
49877;BME280;35771;48.978;9.294;2023-02-14T00:46:11;100913.78;;;-1.63;100.00
49877;BME280;35771;48.978;9.294;2023-02-14T00:48:37;100933.41;;;-1.44;100.00
49877;BME280;35771;48.978;9.294;2023-02-14T00:51:04;100931.19;;;-1.54;100.00
49877;BME280;35771;48.978;9.294;2023-02-14T00:53:31;100912.22;;;-1.69;100.00
49877;BME280;35771;48.978;9.294;2023-02-14T00:55:57;100900.81;;;-1.72;100.00
49877;BME280;35771;48.978;9.294;2023-02-14T00:58:25;100935.88;;;-1.59;100.00
49877;BME280;35771;48.978;9.294;2023-02-14T01:00:52;100921.09;;;-1.68;100.00
49877;BME280;35771;48.978;9.294;2023-02-14T01:03:19;100925.25;;;-1.61;100.00
49877;BME280;35771;48.978;9.294;2023-02-14T01:05:46;100909.88;;;-1.76;100.00
49877;BME280;35771;48.978;9.294;2023-02-14T01:08:12;100929.63;;;-1.60;100.00
49877;BME280;35771;48.978;9.294;2023-02-14T01:10:40;100940.50;;;-1.65;100.00
49877;BME280;35771;48.978;9.294;2023-02-14T01:13:07;100935.16;;;-1.65;100.00
49877;BME280;35771;48.978;9.294;2023-02-14T01:15:39;100934.25;;;-1.64;100.00
49877;BME280;35771;48.978;9.294;2023-02-14T01:18:06;100917.94;;;-1.78;100.00
49877;BME280;35771;48.978;9.294;2023-02-14T01:20:33;100928.97;;;-1.65;100.00
49877;BME280;35771;48.978;9.294;2023-02-14T01:23:00;100928.28;;;-1.70;100.00
49877;BME280;35771;48.978;9.294;2023-02-14T01:25:26;100929.28;;;-1.73;100.00
49877;BME280;35771;48.978;9.294;2023-02-14T01:27:53;100912.84;;;-1.84;100.00
49877;BME280;35771;48.978;9.294;2023-02-14T01:30:20;100923.78;;;-1.68;100.00
49877;BME280;35771;48.978;9.294;2023-02-14T01:32:48;100917.47;;;-1.67;100.00
49877;BME280;35771;48.978;9.294;2023-02-14T01:35:15;100931.19;;;-1.76;100.00
49877;BME280;35771;48.978;9.294;2023-02-14T01:37:41;100924.34;;;-1.82;100.00
49877;BME280;35771;48.978;9.294;2023-02-14T01:40:10;100923.66;;;-1.87;100.00
49877;BME280;35771;48.978;9.294;2023-02-14T01:42:37;100928.97;;;-1.87;100.00
49877;BME280;35771;48.978;9.294;2023-02-14T01:45:07;100917.66;;;-1.92;100.00
49877;BME280;35771;48.978;9.294;2023-02-14T01:47:37;100913.34;;;-1.97;100.00
49877;BME280;35771;48.978;9.294;2023-02-14T01:50:09;100915.84;;;-1.92;100.00
49877;BME280;35771;48.978;9.294;2023-02-14T01:52:40;100919.47;;;-1.94;100.00
49877;BME280;35771;48.978;9.294;2023-02-14T01:55:11;100899.41;;;-2.03;100.00
49877;BME280;35771;48.978;9.294;2023-02-14T01:57:42;100921.91;;;-1.88;100.00
49877;BME280;35771;48.978;9.294;2023-02-14T02:00:10;100903.81;;;-2.02;100.00
49877;BME280;35771;48.978;9.294;2023-02-14T02:02:55;100922.53;;;-2.04;100.00
49877;BME280;35771;48.978;9.294;2023-02-14T02:05:25;100910.31;;;-2.09;100.00
49877;BME280;35771;48.978;9.294;2023-02-14T02:07:56;100921.66;;;-2.04;100.00
49877;BME280;35771;48.978;9.294;2023-02-14T02:10:24;100930.53;;;-2.04;100.00
49877;BME280;35771;48.978;9.294;2023-02-14T02:12:52;100924.00;;;-2.19;100.00
49877;BME280;35771;48.978;9.294;2023-02-14T02:15:23;100910.97;;;-2.26;100.00
49877;BME280;35771;48.978;9.294;2023-02-14T02:17:57;100908.56;;;-2.33;100.00
49877;BME280;35771;48.978;9.294;2023-02-14T02:23:49;100936.13;;;-2.34;100.00
49877;BME280;35771;48.978;9.294;2023-02-14T02:26:43;100926.66;;;-2.41;100.00
49877;BME280;35771;48.978;9.294;2023-02-14T02:29:37;100932.94;;;-2.43;100.00
49877;BME280;35771;48.978;9.294;2023-02-14T02:35:29;100927.16;;;-2.55;100.00
49877;BME280;35771;48.978;9.294;2023-02-14T02:38:21;100929.88;;;-2.56;100.00
49877;BME280;35771;48.978;9.294;2023-02-14T02:40:59;100934.47;;;-2.60;100.00
49877;BME280;35771;48.978;9.294;2023-02-14T02:43:37;100907.63;;;-2.79;100.00
49877;BME280;35771;48.978;9.294;2023-02-14T02:46:10;100934.97;;;-2.74;100.00
49877;BME280;35771;48.978;9.294;2023-02-14T02:49:05;100924.97;;;-2.67;100.00
49877;BME280;35771;48.978;9.294;2023-02-14T02:51:41;100918.78;;;-2.68;100.00
49877;BME280;35771;48.978;9.294;2023-02-14T02:54:32;100906.84;;;-2.81;100.00
49877;BME280;35771;48.978;9.294;2023-02-14T02:57:02;100915.13;;;-2.89;100.00
49877;BME280;35771;48.978;9.294;2023-02-14T02:59:33;100917.66;;;-2.86;100.00
49877;BME280;35771;48.978;9.294;2023-02-14T03:02:04;100936.13;;;-2.81;100.00
49877;BME280;35771;48.978;9.294;2023-02-14T03:04:31;100929.28;;;-2.88;100.00
49877;BME280;35771;48.978;9.294;2023-02-14T03:07:19;100918.22;;;-3.01;100.00
49877;BME280;35771;48.978;9.294;2023-02-14T03:10:04;100933.31;;;-3.02;100.00
49877;BME280;35771;48.978;9.294;2023-02-14T03:12:52;100921.81;;;-3.02;100.00
49877;BME280;35771;48.978;9.294;2023-02-14T03:15:32;100918.31;;;-3.04;100.00
49877;BME280;35771;48.978;9.294;2023-02-14T03:18:06;100924.56;;;-3.05;100.00
49877;BME280;35771;48.978;9.294;2023-02-14T03:20:54;100931.66;;;-3.06;100.00
49877;BME280;35771;48.978;9.294;2023-02-14T03:23:28;100942.63;;;-3.15;100.00
49877;BME280;35771;48.978;9.294;2023-02-14T03:26:01;100939.81;;;-3.10;100.00
49877;BME280;35771;48.978;9.294;2023-02-14T03:28:36;100936.63;;;-3.20;100.00
49877;BME280;35771;48.978;9.294;2023-02-14T03:31:13;100918.28;;;-3.28;100.00
49877;BME280;35771;48.978;9.294;2023-02-14T03:33:48;100904.47;;;-3.39;100.00
49877;BME280;35771;48.978;9.294;2023-02-14T03:36:19;100936.63;;;-3.20;100.00
49877;BME280;35771;48.978;9.294;2023-02-14T03:38:51;100905.41;;;-3.40;100.00
49877;BME280;35771;48.978;9.294;2023-02-14T03:41:25;100928.81;;;-3.25;100.00
49877;BME280;35771;48.978;9.294;2023-02-14T03:43:55;100925.25;;;-3.25;100.00
49877;BME280;35771;48.978;9.294;2023-02-14T03:46:23;100921.75;;;-3.26;100.00
49877;BME280;35771;48.978;9.294;2023-02-14T03:48:53;100914.19;;;-3.38;100.00
49877;BME280;35771;48.978;9.294;2023-02-14T03:51:22;100903.78;;;-3.44;100.00
49877;BME280;35771;48.978;9.294;2023-02-14T03:53:55;100901.44;;;-3.53;100.00
49877;BME280;35771;48.978;9.294;2023-02-14T03:56:28;100922.06;;;-3.35;100.00
49877;BME280;35771;48.978;9.294;2023-02-14T03:59:00;100903.03;;;-3.49;100.00
49877;BME280;35771;48.978;9.294;2023-02-14T04:01:34;100912.66;;;-3.45;100.00
49877;BME280;35771;48.978;9.294;2023-02-14T04:04:03;100889.22;;;-3.59;100.00
49877;BME280;35771;48.978;9.294;2023-02-14T04:06:30;100914.69;;;-3.52;100.00
49877;BME280;35771;48.978;9.294;2023-02-14T04:08:58;100921.81;;;-3.54;100.00
49877;BME280;35771;48.978;9.294;2023-02-14T04:11:25;100918.81;;;-3.70;100.00
49877;BME280;35771;48.978;9.294;2023-02-14T04:13:52;100912.66;;;-3.72;100.00
49877;BME280;35771;48.978;9.294;2023-02-14T04:16:18;100907.25;;;-3.69;100.00
49877;BME280;35771;48.978;9.294;2023-02-14T04:18:45;100896.00;;;-3.77;100.00
49877;BME280;35771;48.978;9.294;2023-02-14T04:21:29;100918.03;;;-3.74;100.00
49877;BME280;35771;48.978;9.294;2023-02-14T04:23:55;100925.75;;;-3.66;100.00
49877;BME280;35771;48.978;9.294;2023-02-14T04:26:23;100934.19;;;-3.80;100.00
49877;BME280;35771;48.978;9.294;2023-02-14T04:28:50;100925.50;;;-3.85;100.00
49877;BME280;35771;48.978;9.294;2023-02-14T04:31:16;100921.97;;;-3.85;100.00
49877;BME280;35771;48.978;9.294;2023-02-14T04:33:43;100902.75;;;-3.94;100.00
49877;BME280;35771;48.978;9.294;2023-02-14T04:36:10;100913.28;;;-3.91;100.00
49877;BME280;35771;48.978;9.294;2023-02-14T04:38:37;100926.25;;;-3.81;100.00
49877;BME280;35771;48.978;9.294;2023-02-14T04:41:03;100920.09;;;-3.82;100.00
49877;BME280;35771;48.978;9.294;2023-02-14T04:43:31;100908.16;;;-3.97;100.00
49877;BME280;35771;48.978;9.294;2023-02-14T04:45:58;100901.00;;;-3.95;100.00
49877;BME280;35771;48.978;9.294;2023-02-14T04:48:24;100907.16;;;-3.93;100.00
49877;BME280;35771;48.978;9.294;2023-02-14T04:50:52;100913.53;;;-3.98;100.00
49877;BME280;35771;48.978;9.294;2023-02-14T04:53:19;100917.03;;;-3.98;100.00
49877;BME280;35771;48.978;9.294;2023-02-14T04:55:47;100911.88;;;-4.02;100.00
49877;BME280;35771;48.978;9.294;2023-02-14T04:58:14;100907.50;;;-4.03;100.00
49877;BME280;35771;48.978;9.294;2023-02-14T05:00:42;100916.25;;;-4.00;100.00
49877;BME280;35771;48.978;9.294;2023-02-14T05:03:08;100904.91;;;-4.05;100.00
49877;BME280;35771;48.978;9.294;2023-02-14T05:05:35;100910.22;;;-4.06;100.00
49877;BME280;35771;48.978;9.294;2023-02-14T05:08:01;100893.84;;;-4.19;100.00
49877;BME280;35771;48.978;9.294;2023-02-14T05:10:28;100903.34;;;-4.12;100.00
49877;BME280;35771;48.978;9.294;2023-02-14T05:12:54;100903.19;;;-4.07;100.00
49877;BME280;35771;48.978;9.294;2023-02-14T05:15:21;100893.84;;;-4.19;100.00
49877;BME280;35771;48.978;9.294;2023-02-14T05:17:49;100904.41;;;-4.18;100.00
49877;BME280;35771;48.978;9.294;2023-02-14T05:20:15;100921.84;;;-4.09;100.00
49877;BME280;35771;48.978;9.294;2023-02-14T05:22:42;100910.28;;;-4.08;100.00
49877;BME280;35771;48.978;9.294;2023-02-14T05:25:09;100906.19;;;-4.18;100.00
49877;BME280;35771;48.978;9.294;2023-02-14T05:27:35;100894.22;;;-4.32;100.00
49877;BME280;35771;48.978;9.294;2023-02-14T05:30:02;100905.47;;;-4.23;100.00
49877;BME280;35771;48.978;9.294;2023-02-14T05:32:28;100920.50;;;-4.22;100.00
49877;BME280;35771;48.978;9.294;2023-02-14T05:34:57;100910.91;;;-4.28;100.00
49877;BME280;35771;48.978;9.294;2023-02-14T05:37:24;100899.81;;;-4.41;100.00
49877;BME280;35771;48.978;9.294;2023-02-14T05:39:50;100903.25;;;-4.37;100.00
49877;BME280;35771;48.978;9.294;2023-02-14T05:42:17;100902.69;;;-4.49;100.00
49877;BME280;35771;48.978;9.294;2023-02-14T05:44:43;100894.09;;;-4.57;100.00
49877;BME280;35771;48.978;9.294;2023-02-14T05:47:10;100925.38;;;-4.38;100.00
49877;BME280;35771;48.978;9.294;2023-02-14T05:49:36;100915.19;;;-4.52;100.00
49877;BME280;35771;48.978;9.294;2023-02-14T05:52:04;100923.88;;;-4.47;100.00
49877;BME280;35771;48.978;9.294;2023-02-14T05:54:31;100916.19;;;-4.56;100.00
49877;BME280;35771;48.978;9.294;2023-02-14T05:56:57;100919.78;;;-4.57;100.00
49877;BME280;35771;48.978;9.294;2023-02-14T05:59:24;100919.66;;;-4.53;100.00
49877;BME280;35771;48.978;9.294;2023-02-14T06:01:50;100924.38;;;-4.64;100.00
49877;BME280;35771;48.978;9.294;2023-02-14T06:04:17;100930.31;;;-4.54;100.00
49877;BME280;35771;48.978;9.294;2023-02-14T06:06:43;100941.59;;;-4.48;100.00
49877;BME280;35771;48.978;9.294;2023-02-14T06:09:11;100922.44;;;-4.57;100.00
49877;BME280;35771;48.978;9.294;2023-02-14T06:11:38;100939.09;;;-4.52;100.00
49877;BME280;35771;48.978;9.294;2023-02-14T06:14:04;100913.78;;;-4.64;100.00
49877;BME280;35771;48.978;9.294;2023-02-14T06:16:31;100920.06;;;-4.68;100.00
49877;BME280;35771;48.978;9.294;2023-02-14T06:18:57;100924.25;;;-4.59;100.00
49877;BME280;35771;48.978;9.294;2023-02-14T06:21:24;100932.44;;;-4.67;100.00
49877;BME280;35771;48.978;9.294;2023-02-14T06:23:53;100938.69;;;-4.70;100.00
49877;BME280;35771;48.978;9.294;2023-02-14T06:26:24;100941.25;;;-4.65;100.00
49877;BME280;35771;48.978;9.294;2023-02-14T06:28:53;100930.78;;;-4.71;100.00
49877;BME280;35771;48.978;9.294;2023-02-14T06:31:20;100913.31;;;-4.78;100.00
49877;BME280;35771;48.978;9.294;2023-02-14T06:33:47;100943.91;;;-4.65;100.00
49877;BME280;35771;48.978;9.294;2023-02-14T06:36:14;100943.09;;;-4.69;100.00
49877;BME280;35771;48.978;9.294;2023-02-14T06:38:42;100949.41;;;-4.73;100.00
49877;BME280;35771;48.978;9.294;2023-02-14T06:41:09;100945.84;;;-4.72;100.00
49877;BME280;35771;48.978;9.294;2023-02-14T06:43:38;100944.91;;;-4.69;100.00
49877;BME280;35771;48.978;9.294;2023-02-14T06:46:04;100945.97;;;-4.76;100.00
49877;BME280;35771;48.978;9.294;2023-02-14T06:48:31;100944.66;;;-4.62;100.00
49877;BME280;35771;48.978;9.294;2023-02-14T06:50:58;100951.72;;;-4.60;100.00
49877;BME280;35771;48.978;9.294;2023-02-14T06:53:24;100942.97;;;-4.64;100.00
49877;BME280;35771;48.978;9.294;2023-02-14T06:55:51;100943.75;;;-4.60;100.00
49877;BME280;35771;48.978;9.294;2023-02-14T06:58:17;100941.06;;;-4.59;100.00
49877;BME280;35771;48.978;9.294;2023-02-14T07:00:45;100921.97;;;-4.72;100.00
49877;BME280;35771;48.978;9.294;2023-02-14T07:03:12;100932.31;;;-4.63;100.00
49877;BME280;35771;48.978;9.294;2023-02-14T07:05:39;100946.16;;;-4.51;100.00
49877;BME280;35771;48.978;9.294;2023-02-14T07:08:06;100936.63;;;-4.58;100.00
49877;BME280;35771;48.978;9.294;2023-02-14T07:10:32;100938.13;;;-4.50;100.00
49877;BME280;35771;48.978;9.294;2023-02-14T07:12:59;100948.63;;;-4.45;100.00
49877;BME280;35771;48.978;9.294;2023-02-14T07:15:26;100939.69;;;-4.42;100.00
49877;BME280;35771;48.978;9.294;2023-02-14T07:17:54;100946.59;;;-4.37;100.00
49877;BME280;35771;48.978;9.294;2023-02-14T07:20:20;100960.50;;;-4.29;100.00
49877;BME280;35771;48.978;9.294;2023-02-14T07:22:47;100952.22;;;-4.18;100.00
49877;BME280;35771;48.978;9.294;2023-02-14T07:25:13;100947.41;;;-4.05;100.00
49877;BME280;35771;48.978;9.294;2023-02-14T07:27:43;100948.47;;;-4.11;100.00
49877;BME280;35771;48.978;9.294;2023-02-14T07:30:15;100944.59;;;-4.00;100.00
49877;BME280;35771;48.978;9.294;2023-02-14T07:32:41;100933.09;;;-4.01;100.00
49877;BME280;35771;48.978;9.294;2023-02-14T07:35:10;100921.84;;;-4.09;100.00
49877;BME280;35771;48.978;9.294;2023-02-14T07:37:36;100912.13;;;-4.10;100.00
49877;BME280;35771;48.978;9.294;2023-02-14T07:40:04;100939.84;;;-3.91;100.00
49877;BME280;35771;48.978;9.294;2023-02-14T07:42:31;100930.13;;;-3.92;100.00
49877;BME280;35771;48.978;9.294;2023-02-14T07:44:57;100917.84;;;-3.94;100.00
49877;BME280;35771;48.978;9.294;2023-02-14T07:47:24;100931.47;;;-3.78;100.00
49877;BME280;35771;48.978;9.294;2023-02-14T07:49:50;100925.19;;;-3.76;100.00
49877;BME280;35771;48.978;9.294;2023-02-14T07:52:18;100920.75;;;-3.75;100.00
49877;BME280;35771;48.978;9.294;2023-02-14T07:54:45;100915.28;;;-3.70;100.00
49877;BME280;35771;48.978;9.294;2023-02-14T07:57:11;100929.84;;;-3.56;100.00
49877;BME280;35771;48.978;9.294;2023-02-14T07:59:39;100929.34;;;-3.40;100.00
49877;BME280;35771;48.978;9.294;2023-02-14T08:02:06;100938.66;;;-3.28;100.00
49877;BME280;35771;48.978;9.294;2023-02-14T08:04:32;100939.66;;;-3.31;100.00
49877;BME280;35771;48.978;9.294;2023-02-14T08:06:59;100917.72;;;-3.38;100.00
49877;BME280;35771;48.978;9.294;2023-02-14T08:09:26;100937.53;;;-3.21;100.00
49877;BME280;35771;48.978;9.294;2023-02-14T08:11:55;100905.94;;;-3.30;100.00
49877;BME280;35771;48.978;9.294;2023-02-14T08:14:39;100924.06;;;-3.16;100.00
49877;BME280;35771;48.978;9.294;2023-02-14T08:17:06;100930.59;;;-3.00;100.00
49877;BME280;35771;48.978;9.294;2023-02-14T08:19:34;100908.78;;;-3.10;100.00
49877;BME280;35771;48.978;9.294;2023-02-14T08:22:01;100919.78;;;-2.95;100.00
49877;BME280;35771;48.978;9.294;2023-02-14T08:24:30;100925.88;;;-2.92;100.00
49877;BME280;35771;48.978;9.294;2023-02-14T08:26:56;100911.38;;;-2.83;100.00
49877;BME280;35771;48.978;9.294;2023-02-14T08:29:23;100913.78;;;-2.77;100.00
49877;BME280;35771;48.978;9.294;2023-02-14T08:31:50;100921.09;;;-2.58;100.00
49877;BME280;35771;48.978;9.294;2023-02-14T08:34:17;100893.13;;;-2.70;100.00
49877;BME280;35771;48.978;9.294;2023-02-14T08:36:44;100922.78;;;-2.56;100.00
49877;BME280;35771;48.978;9.294;2023-02-14T08:39:11;100914.13;;;-2.62;100.00
49877;BME280;35771;48.978;9.294;2023-02-14T08:41:39;100910.19;;;-2.52;100.00
49877;BME280;35771;48.978;9.294;2023-02-14T08:44:06;100916.69;;;-2.36;100.00
49877;BME280;35771;48.978;9.294;2023-02-14T08:46:32;100928.41;;;-2.18;100.00
49877;BME280;35771;48.978;9.294;2023-02-14T08:48:59;100905.34;;;-2.19;100.00
49877;BME280;35771;48.978;9.294;2023-02-14T08:51:25;100903.69;;;-1.99;100.00
49877;BME280;35771;48.978;9.294;2023-02-14T08:53:52;100921.56;;;-1.79;100.00
49877;BME280;35771;48.978;9.294;2023-02-14T08:56:20;100899.91;;;-1.93;100.00
49877;BME280;35771;48.978;9.294;2023-02-14T08:58:50;100909.94;;;-1.78;100.00
49877;BME280;35771;48.978;9.294;2023-02-14T09:01:17;100910.81;;;-1.77;100.00
49877;BME280;35771;48.978;9.294;2023-02-14T09:03:43;100901.63;;;-1.70;100.00
49877;BME280;35771;48.978;9.294;2023-02-14T09:06:12;100893.41;;;-1.66;100.00
49877;BME280;35771;48.978;9.294;2023-02-14T09:08:41;100880.22;;;-1.69;100.00
49877;BME280;35771;48.978;9.294;2023-02-14T09:11:10;100899.56;;;-1.43;100.00
49877;BME280;35771;48.978;9.294;2023-02-14T09:13:37;100874.78;;;-1.45;100.00
49877;BME280;35771;48.978;9.294;2023-02-14T09:16:05;100882.44;;;-1.37;100.00
49877;BME280;35771;48.978;9.294;2023-02-14T09:18:31;100875.78;;;-1.27;100.00
49877;BME280;35771;48.978;9.294;2023-02-14T09:20:58;100886.66;;;-1.11;100.00
49877;BME280;35771;48.978;9.294;2023-02-14T09:23:25;100885.13;;;-0.96;100.00
49877;BME280;35771;48.978;9.294;2023-02-14T09:25:59;100882.88;;;-0.86;100.00
49877;BME280;35771;48.978;9.294;2023-02-14T09:28:25;100861.44;;;-0.85;100.00
49877;BME280;35771;48.978;9.294;2023-02-14T09:30:52;100878.34;;;-0.65;100.00
49877;BME280;35771;48.978;9.294;2023-02-14T09:33:20;100866.88;;;-0.67;100.00
49877;BME280;35771;48.978;9.294;2023-02-14T09:35:46;100853.47;;;-0.66;100.00
49877;BME280;35771;48.978;9.294;2023-02-14T09:38:13;100855.75;;;-0.58;100.00
49877;BME280;35771;48.978;9.294;2023-02-14T09:40:39;100866.38;;;-0.38;100.00
49877;BME280;35771;48.978;9.294;2023-02-14T09:43:10;100884.06;;;-0.16;100.00
49877;BME280;35771;48.978;9.294;2023-02-14T09:45:41;100850.22;;;-0.17;100.00
49877;BME280;35771;48.978;9.294;2023-02-14T09:48:13;100878.63;;;0.05;100.00
49877;BME280;35771;48.978;9.294;2023-02-14T09:50:47;100871.28;;;0.08;100.00
49877;BME280;35771;48.978;9.294;2023-02-14T09:53:21;100880.66;;;0.17;100.00
49877;BME280;35771;48.978;9.294;2023-02-14T09:55:51;100876.09;;;0.19;100.00
49877;BME280;35771;48.978;9.294;2023-02-14T09:58:24;100860.72;;;0.24;100.00
49877;BME280;35771;48.978;9.294;2023-02-14T10:00:56;100840.94;;;0.27;100.00
49877;BME280;35771;48.978;9.294;2023-02-14T10:03:52;100863.22;;;0.45;100.00
49877;BME280;35771;48.978;9.294;2023-02-14T10:06:47;100860.31;;;0.67;100.00
49877;BME280;35771;48.978;9.294;2023-02-14T10:09:34;100832.84;;;0.63;100.00
49877;BME280;35771;48.978;9.294;2023-02-14T10:12:05;100850.53;;;0.83;100.00
49877;BME280;35771;48.978;9.294;2023-02-14T10:14:36;100819.88;;;0.89;100.00
49877;BME280;35771;48.978;9.294;2023-02-14T10:17:07;100847.00;;;1.16;100.00
49877;BME280;35771;48.978;9.294;2023-02-14T10:19:36;100839.03;;;1.31;100.00
49877;BME280;35771;48.978;9.294;2023-02-14T10:22:08;100831.34;;;1.24;100.00
49877;BME280;35771;48.978;9.294;2023-02-14T10:24:42;100820.03;;;1.35;100.00
49877;BME280;35771;48.978;9.294;2023-02-14T10:27:17;100822.72;;;1.35;100.00
49877;BME280;35771;48.978;9.294;2023-02-14T10:29:47;100834.47;;;1.49;100.00
49877;BME280;35771;48.978;9.294;2023-02-14T10:32:19;100829.03;;;1.50;100.00
49877;BME280;35771;48.978;9.294;2023-02-14T10:34:49;100806.66;;;1.67;100.00
49877;BME280;35771;48.978;9.294;2023-02-14T10:37:25;100806.22;;;1.75;100.00
49877;BME280;35771;48.978;9.294;2023-02-14T10:40:04;100806.44;;;1.86;100.00
49877;BME280;35771;48.978;9.294;2023-02-14T10:42:42;100807.09;;;2.06;100.00
49877;BME280;35771;48.978;9.294;2023-02-14T10:45:17;100784.53;;;1.94;100.00
49877;BME280;35771;48.978;9.294;2023-02-14T10:47:53;100805.56;;;2.32;100.00
49877;BME280;35771;48.978;9.294;2023-02-14T10:50:25;100791.28;;;2.32;100.00
49877;BME280;35771;48.978;9.294;2023-02-14T10:53:02;100803.47;;;2.37;100.00
49877;BME280;35771;48.978;9.294;2023-02-14T10:55:41;100802.53;;;2.53;100.00
49877;BME280;35771;48.978;9.294;2023-02-14T10:58:12;100799.38;;;2.46;100.00
49877;BME280;35771;48.978;9.294;2023-02-14T11:00:52;100775.41;;;2.43;100.00
49877;BME280;35771;48.978;9.294;2023-02-14T11:03:21;100789.53;;;2.61;100.00
49877;BME280;35771;48.978;9.294;2023-02-14T11:05:49;100797.88;;;2.71;100.00
49877;BME280;35771;48.978;9.294;2023-02-14T11:08:23;100788.75;;;2.73;100.00
49877;BME280;35771;48.978;9.294;2023-02-14T11:10:50;100789.94;;;2.83;100.00
49877;BME280;35771;48.978;9.294;2023-02-14T11:13:33;100776.78;;;2.79;100.00
49877;BME280;35771;48.978;9.294;2023-02-14T11:16:02;100796.16;;;3.13;100.00
49877;BME280;35771;48.978;9.294;2023-02-14T11:18:30;100779.06;;;2.99;100.00
49877;BME280;35771;48.978;9.294;2023-02-14T11:21:02;100762.28;;;2.96;100.00
49877;BME280;35771;48.978;9.294;2023-02-14T11:23:35;100790.13;;;3.09;100.00
49877;BME280;35771;48.978;9.294;2023-02-14T11:26:04;100785.69;;;3.23;100.00
49877;BME280;35771;48.978;9.294;2023-02-14T11:28:33;100770.00;;;3.29;100.00
49877;BME280;35771;48.978;9.294;2023-02-14T11:31:00;100778.28;;;3.41;100.00
49877;BME280;35771;48.978;9.294;2023-02-14T11:33:33;100742.19;;;3.30;100.00
49877;BME280;35771;48.978;9.294;2023-02-14T11:36:00;100740.72;;;3.39;100.00
49877;BME280;35771;48.978;9.294;2023-02-14T11:38:30;100748.19;;;3.48;100.00
49877;BME280;35771;48.978;9.294;2023-02-14T11:41:01;100732.09;;;3.34;100.00
49877;BME280;35771;48.978;9.294;2023-02-14T11:43:30;100761.69;;;3.61;100.00
49877;BME280;35771;48.978;9.294;2023-02-14T11:46:07;100726.47;;;3.51;100.00
49877;BME280;35771;48.978;9.294;2023-02-14T11:48:38;100744.03;;;3.57;100.00
49877;BME280;35771;48.978;9.294;2023-02-14T11:51:25;100754.53;;;3.75;100.00
49877;BME280;35771;48.978;9.294;2023-02-14T11:53:53;100740.75;;;3.79;100.00
49877;BME280;35771;48.978;9.294;2023-02-14T11:56:23;100737.72;;;3.98;100.00
49877;BME280;35771;48.978;9.294;2023-02-14T11:58:53;100738.13;;;4.05;100.00
49877;BME280;35771;48.978;9.294;2023-02-14T12:01:24;100721.06;;;4.19;100.00
49877;BME280;35771;48.978;9.294;2023-02-14T12:03:53;100716.22;;;4.11;100.00
49877;BME280;35771;48.978;9.294;2023-02-14T12:06:23;100707.72;;;4.17;100.00
49877;BME280;35771;48.978;9.294;2023-02-14T12:08:50;100725.16;;;4.37;100.00
49877;BME280;35771;48.978;9.294;2023-02-14T12:11:18;100722.91;;;4.57;100.00
49877;BME280;35771;48.978;9.294;2023-02-14T12:13:52;100701.16;;;4.47;100.00
49877;BME280;35771;48.978;9.294;2023-02-14T12:16:23;100711.59;;;4.65;100.00
49877;BME280;35771;48.978;9.294;2023-02-14T12:18:53;100696.28;;;4.78;100.00
49877;BME280;35771;48.978;9.294;2023-02-14T12:21:38;100702.63;;;4.90;100.00
49877;BME280;35771;48.978;9.294;2023-02-14T12:24:15;100697.31;;;5.01;100.00
49877;BME280;35771;48.978;9.294;2023-02-14T12:26:48;100682.84;;;5.02;100.00
49877;BME280;35771;48.978;9.294;2023-02-14T12:29:21;100682.53;;;5.07;100.00
49877;BME280;35771;48.978;9.294;2023-02-14T12:31:51;100698.63;;;5.32;100.00
49877;BME280;35771;48.978;9.294;2023-02-14T12:34:19;100697.94;;;5.42;100.00
49877;BME280;35771;48.978;9.294;2023-02-14T12:37:07;100687.66;;;5.47;100.00
49877;BME280;35771;48.978;9.294;2023-02-14T12:39:45;100679.13;;;5.53;100.00
49877;BME280;35771;48.978;9.294;2023-02-14T12:42:25;100679.72;;;5.57;100.00
49877;BME280;35771;48.978;9.294;2023-02-14T12:45:06;100662.50;;;5.46;100.00
49877;BME280;35771;48.978;9.294;2023-02-14T12:47:40;100673.03;;;5.62;100.00
49877;BME280;35771;48.978;9.294;2023-02-14T12:50:35;100659.06;;;5.68;98.64
49877;BME280;35771;48.978;9.294;2023-02-14T12:53:23;100660.31;;;5.76;99.45
49877;BME280;35771;48.978;9.294;2023-02-14T12:56:01;100647.91;;;5.73;98.59
49877;BME280;35771;48.978;9.294;2023-02-14T12:58:41;100645.84;;;5.77;97.14
49877;BME280;35771;48.978;9.294;2023-02-14T13:01:28;100637.53;;;5.80;97.44
49877;BME280;35771;48.978;9.294;2023-02-14T13:04:02;100656.75;;;5.99;98.30
49877;BME280;35771;48.978;9.294;2023-02-14T13:06:36;100656.75;;;6.11;97.33